Time;durP1;ratioP1;P1;durP2;ratioP2;P2;SDS_P1;SDS_P2;PMS_P1;PMS_P2;Temp;Humidity;BMP_temperature;BMP_pressure;BME280_temperature;BME280_humidity;BME280_pressure;Samples;Min_cycle;Max_cycle;Signal;HPM_P1;HPM_P2
2022/04/08 00:00:17;;;;;;;12.52;1.80;;;5.80;99.90;;;;;;5129374;27;20066;-74
2022/04/08 00:02:43;;;;;;;7.45;1.45;;;5.80;99.90;;;;;;5129434;27;20154;-73
2022/04/08 00:05:09;;;;;;;7.03;1.92;;;5.90;99.90;;;;;;5129824;27;20035;-73
2022/04/08 00:07:35;;;;;;;12.73;2.28;;;6.00;99.90;;;;;;5127949;27;20054;-73
2022/04/08 00:10:02;;;;;;;10.10;1.80;;;5.80;99.90;;;;;;5128916;27;20047;-73
2022/04/08 00:12:28;;;;;;;12.57;1.73;;;5.60;99.90;;;;;;5148711;27;20043;-73
2022/04/08 00:14:54;;;;;;;12.93;1.60;;;5.80;99.90;;;;;;5130771;27;20046;-73
2022/04/08 00:17:19;;;;;;;9.98;1.75;;;5.70;99.90;;;;;;5129425;27;20047;-73
2022/04/08 00:19:45;;;;;;;8.52;1.70;;;5.70;99.90;;;;;;5130213;27;20047;-73
2022/04/08 00:22:11;;;;;;;12.88;1.80;;;5.90;99.90;;;;;;5148241;27;20035;-73
2022/04/08 00:24:36;;;;;;;7.35;1.50;;;5.70;99.90;;;;;;5128894;27;20106;-73
2022/04/08 00:27:02;;;;;;;13.43;2.03;;;5.70;99.90;;;;;;5128608;27;20051;-73
2022/04/08 00:29:28;;;;;;;8.90;1.85;;;5.70;99.90;;;;;;5128825;27;20509;-73
2022/04/08 00:31:57;;;;;;;6.22;1.48;;;5.70;99.90;;;;;;5147919;27;20040;-73
2022/04/08 00:34:25;;;;;;;13.65;2.30;;;6.10;99.90;;;;;;5125986;27;20551;-73
2022/04/08 00:36:51;;;;;;;9.63;1.80;;;5.60;99.90;;;;;;5122799;27;20058;-73
2022/04/08 00:39:18;;;;;;;6.05;1.77;;;5.90;99.90;;;;;;5133927;27;20047;-73
2022/04/08 00:41:44;;;;;;;7.65;1.60;;;6.10;99.90;;;;;;5144122;27;20633;-73
2022/04/08 00:44:10;;;;;;;12.30;2.20;;;5.80;99.90;;;;;;5148903;27;20054;-73
2022/04/08 00:46:38;;;;;;;9.02;1.73;;;5.70;99.90;;;;;;5130326;27;20046;-73
2022/04/08 00:49:04;;;;;;;8.93;1.63;;;5.90;99.90;;;;;;5166832;27;20102;-73
2022/04/08 00:51:34;;;;;;;7.22;1.90;;;5.70;99.90;;;;;;5148991;27;20049;-73
2022/04/08 00:54:00;;;;;;;7.27;1.30;;;5.60;99.90;;;;;;5147451;27;20041;-73
2022/04/08 00:56:28;;;;;;;8.52;1.65;;;5.80;99.90;;;;;;5148804;27;20042;-73
2022/04/08 00:58:56;;;;;;;8.25;1.40;;;5.50;99.90;;;;;;5148451;27;20137;-73
2022/04/08 01:01:23;;;;;;;8.63;1.45;;;5.70;99.90;;;;;;5148906;27;20050;-73
2022/04/08 01:03:52;;;;;;;8.30;2.17;;;5.50;99.90;;;;;;5130736;27;20035;-73
2022/04/08 01:06:19;;;;;;;9.38;1.98;;;5.40;99.90;;;;;;5148043;27;20057;-73
2022/04/08 01:08:46;;;;;;;4.82;1.15;;;5.60;99.90;;;;;;5147260;27;20057;-73
2022/04/08 01:11:12;;;;;;;4.80;1.17;;;5.50;99.90;;;;;;5147776;27;20107;-73
2022/04/08 01:13:38;;;;;;;4.93;1.23;;;5.20;99.90;;;;;;5148694;27;20066;-73
2022/04/08 01:16:08;;;;;;;7.75;1.30;;;5.40;99.90;;;;;;5148336;27;20050;-73
2022/04/08 01:18:34;;;;;;;4.03;1.00;;;5.20;99.90;;;;;;5125921;27;20051;-73
2022/04/08 01:21:07;;;;;;;7.72;1.45;;;5.20;99.90;;;;;;5174493;27;20039;-73
2022/04/08 01:23:36;;;;;;;6.70;1.25;;;5.20;99.90;;;;;;5142764;27;20047;-73
2022/04/08 01:26:06;;;;;;;8.05;1.27;;;5.10;99.90;;;;;;5145287;27;20042;-74
2022/04/08 01:28:33;;;;;;;9.00;1.70;;;5.00;99.90;;;;;;5127096;27;20098;-74
2022/04/08 01:30:59;;;;;;;8.48;1.88;;;4.80;99.90;;;;;;5141005;27;20099;-73
2022/04/08 01:33:24;;;;;;;5.15;1.45;;;4.80;99.90;;;;;;5148859;27;20054;-74
2022/04/08 01:35:50;;;;;;;11.23;1.60;;;5.10;99.90;;;;;;5148314;27;20046;-74
2022/04/08 01:38:16;;;;;;;9.25;1.85;;;4.60;99.90;;;;;;5138191;27;20047;-73
2022/04/08 01:40:41;;;;;;;4.75;1.30;;;4.80;99.90;;;;;;5135482;27;20102;-73
2022/04/08 01:43:07;;;;;;;1.85;1.00;;;5.00;99.90;;;;;;5127552;27;20039;-73
2022/04/08 01:45:33;;;;;;;4.75;1.80;;;4.90;99.90;;;;;;5109388;27;20088;-73
2022/04/08 01:47:58;;;;;;;4.68;1.30;;;4.30;99.90;;;;;;5110036;27;20043;-73
2022/04/08 01:50:25;;;;;;;5.05;1.17;;;4.30;99.90;;;;;;5126447;27;20077;-74
2022/04/08 01:52:51;;;;;;;6.72;1.10;;;4.70;99.90;;;;;;5106092;27;20043;-74
2022/04/08 01:55:18;;;;;;;5.20;1.00;;;4.80;99.90;;;;;;5137928;27;20497;-74
2022/04/08 01:57:44;;;;;;;3.08;1.25;;;4.70;99.90;;;;;;5108158;27;20046;-74
2022/04/08 02:00:10;;;;;;;4.47;1.63;;;4.80;99.90;;;;;;5111572;27;20047;-74
2022/04/08 02:02:36;;;;;;;8.93;1.40;;;4.60;99.90;;;;;;5107562;27;20042;-74
2022/04/08 02:05:02;;;;;;;6.20;1.30;;;4.60;99.90;;;;;;5124520;27;20051;-74
2022/04/08 02:07:28;;;;;;;5.50;1.30;;;4.50;99.90;;;;;;5117951;28;20054;-74
2022/04/08 02:09:54;;;;;;;6.00;0.95;;;4.50;99.90;;;;;;5140925;27;20063;-74
2022/04/08 02:12:21;;;;;;;6.88;1.73;;;4.50;99.90;;;;;;5134364;27;20038;-74
2022/04/08 02:14:46;;;;;;;5.20;1.13;;;4.50;99.90;;;;;;5112164;27;20043;-74
2022/04/08 02:17:12;;;;;;;8.50;2.20;;;4.50;99.90;;;;;;5122613;27;20122;-74
2022/04/08 02:19:38;;;;;;;5.57;1.55;;;4.20;99.90;;;;;;5126072;27;20039;-74
2022/04/08 02:22:04;;;;;;;5.95;1.42;;;4.40;99.90;;;;;;5131644;27;20494;-73
2022/04/08 02:24:30;;;;;;;5.32;1.30;;;4.20;99.90;;;;;;5132031;27;20047;-74
2022/04/08 02:26:56;;;;;;;4.47;1.10;;;4.10;99.90;;;;;;5125781;27;20043;-73
2022/04/08 02:29:22;;;;;;;7.63;1.55;;;4.20;99.90;;;;;;5128950;27;20038;-74
2022/04/08 02:31:48;;;;;;;7.45;1.52;;;3.80;99.90;;;;;;5127240;27;20050;-74
2022/04/08 02:34:14;;;;;;;9.23;1.75;;;3.90;99.90;;;;;;5125901;27;20240;-74
2022/04/08 02:36:40;;;;;;;10.45;1.40;;;4.00;99.90;;;;;;5147827;27;20042;-74
2022/04/08 02:39:07;;;;;;;8.30;1.50;;;4.00;99.90;;;;;;5143707;27;20444;-74
2022/04/08 02:41:32;;;;;;;6.25;1.48;;;4.00;99.90;;;;;;5146899;27;20394;-74
2022/04/08 02:43:58;;;;;;;7.43;1.60;;;3.70;99.90;;;;;;5146339;27;20067;-74
2022/04/08 02:46:24;;;;;;;12.07;1.90;;;3.60;99.90;;;;;;5164734;27;20035;-74
2022/04/08 02:48:50;;;;;;;5.95;1.50;;;3.40;99.90;;;;;;5148261;27;20096;-74
2022/04/08 02:51:16;;;;;;;8.80;1.90;;;3.40;99.90;;;;;;5129528;27;20050;-73
2022/04/08 02:53:42;;;;;;;8.45;2.55;;;3.30;99.90;;;;;;5147206;27;20037;-74
2022/04/08 02:56:08;;;;;;;6.78;1.73;;;3.60;99.90;;;;;;5147095;27;20038;-74
2022/04/08 02:58:35;;;;;;;6.53;1.20;;;3.80;99.90;;;;;;5147990;27;20107;-74
2022/04/08 03:01:01;;;;;;;14.00;1.70;;;3.90;99.90;;;;;;5146977;27;20047;-74
2022/04/08 03:03:27;;;;;;;7.78;2.10;;;4.00;99.90;;;;;;5115199;28;20075;-74
2022/04/08 03:05:53;;;;;;;5.47;1.40;;;3.80;99.90;;;;;;5145638;27;20047;-73
2022/04/08 03:08:20;;;;;;;7.78;1.80;;;3.70;99.90;;;;;;5142049;27;20047;-73
2022/04/08 03:10:46;;;;;;;8.57;1.65;;;3.60;99.90;;;;;;5145004;27;20107;-74
2022/04/08 03:13:12;;;;;;;4.88;1.58;;;3.60;99.90;;;;;;5146434;27;20082;-74
2022/04/08 03:15:39;;;;;;;8.65;2.42;;;3.50;99.90;;;;;;5141110;27;20074;-74
2022/04/08 03:18:05;;;;;;;9.00;2.10;;;3.40;99.90;;;;;;5146561;27;20076;-74
2022/04/08 03:20:31;;;;;;;8.32;1.73;;;3.60;99.90;;;;;;5165219;27;20137;-74
2022/04/08 03:22:57;;;;;;;6.90;1.50;;;3.60;99.90;;;;;;5146988;27;20074;-74
2022/04/08 03:25:23;;;;;;;12.40;2.33;;;3.60;99.90;;;;;;5147208;27;20064;-74
2022/04/08 03:27:49;;;;;;;8.40;1.60;;;3.50;99.90;;;;;;5146782;27;20065;-74
2022/04/08 03:30:14;;;;;;;12.48;2.25;;;3.70;99.90;;;;;;5146278;27;20099;-74
2022/04/08 03:32:40;;;;;;;8.75;1.50;;;3.80;99.90;;;;;;5146393;27;20039;-74
2022/04/08 03:35:06;;;;;;;8.50;1.92;;;3.60;99.90;;;;;;5147823;27;20046;-74
2022/04/08 03:37:32;;;;;;;12.23;2.47;;;3.50;99.90;;;;;;5144075;27;20044;-74
2022/04/08 03:39:58;;;;;;;9.23;2.00;;;3.30;99.90;;;;;;5146827;27;20130;-74
2022/04/08 03:42:25;;;;;;;14.82;2.88;;;3.30;99.90;;;;;;5164766;27;20049;-74
2022/04/08 03:44:51;;;;;;;8.93;1.73;;;3.30;99.90;;;;;;5146795;27;20406;-74
2022/04/08 03:47:18;;;;;;;11.38;2.50;;;3.20;99.90;;;;;;5151220;27;20054;-74
2022/04/08 03:49:44;;;;;;;10.50;2.08;;;3.30;99.90;;;;;;5133430;27;20098;-74
2022/04/08 03:52:10;;;;;;;12.13;1.92;;;3.30;99.90;;;;;;5133160;27;20045;-74
2022/04/08 03:54:37;;;;;;;13.57;1.95;;;3.30;99.90;;;;;;5167869;27;20134;-75
2022/04/08 03:57:03;;;;;;;8.63;2.28;;;3.30;99.90;;;;;;5150330;27;20043;-75
2022/04/08 03:59:28;;;;;;;8.55;2.28;;;3.40;99.90;;;;;;5168676;27;20047;-75
2022/04/08 04:01:54;;;;;;;15.10;2.55;;;3.40;99.90;;;;;;5149933;27;20046;-75
2022/04/08 04:04:20;;;;;;;11.35;1.70;;;3.50;99.90;;;;;;5149935;27;20512;-75
2022/04/08 04:06:45;;;;;;;8.30;1.63;;;3.70;99.90;;;;;;5150108;27;20046;-74
2022/04/08 04:09:11;;;;;;;8.05;2.15;;;3.80;99.90;;;;;;5149781;27;20043;-74
2022/04/08 04:11:37;;;;;;;11.07;2.50;;;3.80;99.90;;;;;;5167437;27;20065;-75
2022/04/08 04:14:02;;;;;;;13.85;2.80;;;3.80;99.90;;;;;;5127849;27;20074;-75
2022/04/08 04:16:28;;;;;;;7.18;1.92;;;4.00;99.90;;;;;;5149416;27;20050;-75
2022/04/08 04:18:54;;;;;;;10.27;2.10;;;3.90;99.90;;;;;;5149937;27;20055;-75
2022/04/08 04:21:20;;;;;;;6.50;1.63;;;4.10;99.90;;;;;;5149435;27;20098;-75
2022/04/08 04:23:45;;;;;;;6.32;1.50;;;3.90;99.90;;;;;;5149184;27;20463;-75
2022/04/08 04:26:11;;;;;;;5.00;1.60;;;3.90;99.90;;;;;;5148615;27;20054;-75
2022/04/08 04:28:37;;;;;;;7.22;1.92;;;3.80;99.90;;;;;;5148185;27;20037;-75
2022/04/08 04:31:04;;;;;;;5.28;1.90;;;3.70;99.90;;;;;;5149493;27;20517;-74
2022/04/08 04:33:33;;;;;;;3.35;1.90;;;3.70;99.90;;;;;;5093609;27;20065;-75
2022/04/08 04:35:59;;;;;;;4.50;2.13;;;3.70;99.90;;;;;;5147988;27;20035;-75
2022/04/08 04:38:24;;;;;;;4.85;1.77;;;3.70;99.90;;;;;;5147808;27;20058;-74
2022/04/08 04:40:50;;;;;;;5.22;1.60;;;3.70;99.90;;;;;;5127874;27;20068;-76
2022/04/08 04:43:16;;;;;;;4.68;2.22;;;3.60;99.90;;;;;;5133414;27;20054;-75
2022/04/08 04:45:42;;;;;;;4.50;2.38;;;3.50;99.90;;;;;;5117091;27;20058;-74
2022/04/08 04:48:10;;;;;;;4.05;1.50;;;3.50;99.90;;;;;;5127786;27;20116;-71
2022/04/08 04:50:37;;;;;;;7.13;2.10;;;3.50;99.90;;;;;;5112435;27;20065;-74
2022/04/08 04:53:03;;;;;;;3.63;1.65;;;3.50;99.90;;;;;;5139801;27;20051;-76
2022/04/08 04:55:28;;;;;;;3.63;1.60;;;3.40;99.90;;;;;;5130316;27;20129;-74
2022/04/08 04:57:56;;;;;;;2.83;1.60;;;3.30;99.90;;;;;;5122363;27;20426;-75
2022/04/08 05:00:22;;;;;;;3.88;1.80;;;3.20;99.90;;;;;;5113649;27;20050;-76
2022/04/08 05:02:47;;;;;;;4.80;1.77;;;3.20;99.90;;;;;;5142501;27;20034;-77
2022/04/08 05:05:14;;;;;;;1.80;1.60;;;3.10;99.90;;;;;;5130740;27;20111;-75
2022/04/08 05:07:40;;;;;;;7.15;1.90;;;3.10;99.90;;;;;;5125091;27;20370;-74
2022/04/08 05:10:07;;;;;;;3.03;1.83;;;3.10;99.90;;;;;;5105942;27;20490;-74
2022/04/08 05:12:35;;;;;;;4.22;1.83;;;3.10;99.90;;;;;;5131693;27;20414;-73
2022/04/08 05:15:06;;;;;;;3.95;1.90;;;3.10;99.90;;;;;;5093036;27;20802;-74
2022/04/08 05:17:35;;;;;;;4.78;2.20;;;3.00;99.90;;;;;;5133875;27;20242;-73
2022/04/08 05:20:02;;;;;;;4.78;2.22;;;3.10;99.90;;;;;;5131152;27;20047;-74
2022/04/08 05:22:28;;;;;;;7.53;2.33;;;3.20;99.90;;;;;;5138290;27;20058;-70
2022/04/08 05:24:54;;;;;;;4.75;1.70;;;3.30;99.90;;;;;;5132313;27;20046;-77
2022/04/08 05:27:19;;;;;;;2.95;2.10;;;3.40;99.90;;;;;;5141151;27;20039;-77
2022/04/08 05:29:45;;;;;;;4.13;2.00;;;3.50;99.90;;;;;;5110483;27;20093;-76
2022/04/08 05:32:10;;;;;;;8.27;2.13;;;3.60;99.90;;;;;;5111219;27;20138;-76
2022/04/08 05:34:36;;;;;;;5.80;2.22;;;3.70;99.90;;;;;;5130857;27;20038;-76
2022/04/08 05:37:02;;;;;;;6.35;2.72;;;3.80;99.90;;;;;;5140028;27;20051;-76
2022/04/08 05:39:27;;;;;;;6.05;2.10;;;3.80;99.90;;;;;;5128560;27;20051;-75
2022/04/08 05:41:53;;;;;;;8.20;2.17;;;3.90;99.90;;;;;;5124093;27;20046;-75
2022/04/08 05:44:19;;;;;;;3.95;2.08;;;4.00;99.90;;;;;;5133117;27;20038;-75
2022/04/08 05:46:44;;;;;;;5.55;2.38;;;4.00;99.90;;;;;;5108141;27;20452;-76
2022/04/08 05:49:10;;;;;;;5.82;2.10;;;4.00;99.90;;;;;;5122941;27;20399;-77
2022/04/08 05:51:36;;;;;;;6.07;2.42;;;3.90;99.90;;;;;;5127744;27;20053;-77
2022/04/08 05:54:01;;;;;;;5.63;1.95;;;3.80;99.90;;;;;;5123073;27;20073;-77
2022/04/08 05:56:27;;;;;;;7.88;2.50;;;4.00;99.90;;;;;;5129797;27;20061;-74
2022/04/08 05:58:53;;;;;;;5.72;2.40;;;3.90;99.90;;;;;;5122298;27;20054;-75
2022/04/08 06:01:18;;;;;;;9.27;2.33;;;3.90;99.90;;;;;;5114826;27;20051;-76
2022/04/08 06:03:44;;;;;;;4.45;2.10;;;3.90;99.90;;;;;;5122978;27;20275;-76
2022/04/08 06:06:10;;;;;;;7.70;2.30;;;4.00;99.90;;;;;;5123597;27;20173;-76
2022/04/08 06:08:37;;;;;;;4.85;2.40;;;4.20;99.90;;;;;;5140825;27;20043;-76
2022/04/08 06:11:02;;;;;;;9.35;2.53;;;3.90;99.90;;;;;;5108586;27;20091;-76
2022/04/08 06:13:28;;;;;;;5.63;2.17;;;4.10;99.90;;;;;;5139984;27;20042;-75
2022/04/08 06:15:55;;;;;;;7.22;2.38;;;4.10;99.90;;;;;;5130749;27;20043;-76
2022/04/08 06:18:20;;;;;;;4.93;2.55;;;4.40;99.90;;;;;;5135858;27;20071;-76
2022/04/08 06:20:46;;;;;;;5.47;2.30;;;4.20;99.90;;;;;;5113034;27;20070;-76
2022/04/08 06:23:12;;;;;;;7.10;2.10;;;4.30;99.90;;;;;;5140199;27;20071;-75
2022/04/08 06:25:38;;;;;;;7.72;2.53;;;4.40;99.90;;;;;;5128483;27;20054;-75
2022/04/08 06:28:05;;;;;;;4.82;2.40;;;4.50;99.90;;;;;;5138256;27;20491;-75
2022/04/08 06:30:34;;;;;;;4.85;2.42;;;4.60;99.90;;;;;;5111625;27;20054;-74
2022/04/08 06:33:00;;;;;;;3.40;2.20;;;4.60;99.90;;;;;;5128549;27;20054;-75
2022/04/08 06:35:26;;;;;;;5.78;2.20;;;4.60;99.90;;;;;;5128548;27;20075;-76
2022/04/08 06:38:01;;;;;;;4.25;2.00;;;4.70;99.90;;;;;;5138813;27;20114;-76
2022/04/08 06:40:27;;;;;;;5.35;2.75;;;4.70;99.90;;;;;;5110490;27;20107;-75
2022/04/08 06:42:55;;;;;;;3.90;2.30;;;4.70;99.90;;;;;;5139028;27;20043;-76
2022/04/08 06:45:23;;;;;;;5.00;2.22;;;4.60;99.90;;;;;;5127494;27;20050;-76
2022/04/08 06:47:49;;;;;;;5.93;2.20;;;4.70;99.90;;;;;;5138573;27;20050;-76
2022/04/08 06:50:16;;;;;;;4.07;2.28;;;4.60;99.90;;;;;;5128288;27;20366;-77
2022/04/08 06:52:41;;;;;;;5.60;2.30;;;4.70;99.90;;;;;;5139374;27;20497;-76
2022/04/08 06:55:08;;;;;;;5.03;2.50;;;4.60;99.90;;;;;;5146216;27;20064;-77
2022/04/08 06:57:34;;;;;;;4.03;2.15;;;4.60;99.90;;;;;;5137127;27;20242;-77
2022/04/08 07:00:00;;;;;;;2.30;2.10;;;4.80;99.90;;;;;;5145939;27;20057;-77
2022/04/08 07:02:26;;;;;;;4.45;2.20;;;4.80;99.90;;;;;;5134997;27;20042;-76
2022/04/08 07:04:53;;;;;;;5.15;2.30;;;5.00;99.90;;;;;;5127315;27;20042;-76
2022/04/08 07:07:19;;;;;;;4.40;1.98;;;4.90;99.90;;;;;;5132262;27;20046;-76
2022/04/08 07:09:44;;;;;;;3.17;2.00;;;4.90;99.90;;;;;;5127825;27;20073;-75
2022/04/08 07:12:10;;;;;;;3.22;2.28;;;4.90;99.90;;;;;;5130415;27;20053;-75
2022/04/08 07:14:35;;;;;;;5.00;3.10;;;5.00;99.90;;;;;;5157408;27;20045;-75
2022/04/08 07:17:01;;;;;;;2.55;1.90;;;4.80;99.90;;;;;;5102719;27;20499;-71
2022/04/08 07:19:27;;;;;;;4.72;1.98;;;4.90;99.90;;;;;;5139448;27;20130;-76
2022/04/08 07:21:53;;;;;;;2.97;2.25;;;4.90;99.90;;;;;;5114495;27;20047;-74
2022/04/08 07:24:19;;;;;;;5.13;2.30;;;4.90;99.90;;;;;;5139616;27;20087;-73
2022/04/08 07:26:45;;;;;;;4.50;2.25;;;5.00;99.90;;;;;;5131208;27;20043;-74
2022/04/08 07:29:11;;;;;;;4.53;2.38;;;5.10;99.90;;;;;;5106438;27;20041;-74
2022/04/08 07:31:37;;;;;;;5.60;2.33;;;5.10;99.90;;;;;;5135820;27;20051;-75
2022/04/08 07:34:02;;;;;;;3.72;2.22;;;5.20;99.90;;;;;;5142276;27;20085;-73
2022/04/08 07:36:28;;;;;;;3.00;2.20;;;5.50;99.90;;;;;;5147801;27;20096;-74
2022/04/08 07:38:54;;;;;;;4.13;2.45;;;5.60;99.90;;;;;;5141153;27;20210;-75
2022/04/08 07:41:19;;;;;;;6.53;2.60;;;5.70;99.90;;;;;;5111530;27;20051;-74
2022/04/08 07:43:45;;;;;;;3.95;2.50;;;5.70;99.90;;;;;;5125008;27;20055;-75
2022/04/08 07:46:11;;;;;;;5.45;2.55;;;5.90;99.90;;;;;;5123414;27;20219;-76
2022/04/08 07:48:37;;;;;;;2.78;1.80;;;6.00;99.90;;;;;;5142362;27;20125;-74
2022/04/08 07:51:03;;;;;;;3.72;1.98;;;6.10;99.90;;;;;;5131750;27;20149;-74
2022/04/08 07:53:28;;;;;;;5.45;2.50;;;5.90;99.90;;;;;;5138583;27;20034;-76
2022/04/08 07:55:55;;;;;;;6.82;2.38;;;6.00;99.90;;;;;;5137345;27;20055;-74
2022/04/08 07:58:21;;;;;;;6.80;2.20;;;6.00;99.90;;;;;;5160988;27;20084;-75
2022/04/08 08:00:46;;;;;;;10.13;2.65;;;6.20;99.90;;;;;;5127696;27;20065;-77
2022/04/08 08:03:15;;;;;;;7.90;2.78;;;6.40;99.90;;;;;;5123618;27;20038;-76
2022/04/08 08:05:40;;;;;;;7.45;2.47;;;6.40;99.90;;;;;;5131833;27;20085;-75
2022/04/08 08:08:06;;;;;;;8.13;2.72;;;6.60;99.90;;;;;;5140770;27;20043;-75
2022/04/08 08:10:37;;;;;;;8.32;2.53;;;6.80;99.90;;;;;;5152626;27;20062;-75
2022/04/08 08:13:03;;;;;;;7.05;2.70;;;7.10;99.90;;;;;;5135361;27;20066;-75
2022/04/08 08:15:30;;;;;;;6.35;2.10;;;6.50;99.90;;;;;;5131486;27;20854;-75
2022/04/08 08:17:57;;;;;;;5.68;2.80;;;6.00;99.90;;;;;;5124505;27;20175;-74
2022/04/08 08:20:24;;;;;;;8.73;2.92;;;6.00;99.90;;;;;;5128836;27;20042;-74
2022/04/08 08:22:50;;;;;;;8.25;3.53;;;5.90;99.90;;;;;;5149367;27;20086;-74
2022/04/08 08:25:17;;;;;;;9.20;3.30;;;6.10;99.90;;;;;;5113702;27;20082;-75
2022/04/08 08:27:48;;;;;;;10.75;3.00;;;6.00;99.90;;;;;;5102093;27;20043;-74
2022/04/08 08:30:15;;;;;;;11.68;4.13;;;6.10;99.90;;;;;;5106630;27;20056;-74
2022/04/08 08:32:45;;;;;;;16.65;4.22;;;6.20;99.90;;;;;;5126908;27;20043;-74
2022/04/08 08:35:17;;;;;;;7.67;3.23;;;6.20;99.90;;;;;;5130827;27;20227;-74
2022/04/08 08:37:43;;;;;;;7.25;2.80;;;6.20;99.90;;;;;;5124531;27;20581;-74
2022/04/08 08:40:11;;;;;;;4.72;2.75;;;6.30;99.90;;;;;;5132429;27;20047;-75
2022/04/08 08:42:40;;;;;;;7.78;2.70;;;6.20;99.90;;;;;;5136228;27;20042;-74
2022/04/08 08:45:08;;;;;;;4.85;2.45;;;6.40;99.90;;;;;;5150476;27;20494;-75
2022/04/08 08:47:35;;;;;;;10.30;3.20;;;6.40;99.90;;;;;;5139806;27;20114;-74
2022/04/08 08:50:04;;;;;;;9.32;3.25;;;6.50;99.90;;;;;;5102697;27;20034;-74
2022/04/08 08:52:31;;;;;;;7.60;2.72;;;6.60;99.90;;;;;;5141373;27;20077;-74
2022/04/08 08:54:59;;;;;;;6.45;2.53;;;6.80;99.90;;;;;;5140816;27;20327;-75
2022/04/08 08:57:25;;;;;;;10.90;3.00;;;6.90;99.90;;;;;;5130833;27;20107;-75
2022/04/08 08:59:52;;;;;;;12.20;3.45;;;6.80;99.90;;;;;;5159723;27;20430;-74
2022/04/08 09:02:19;;;;;;;8.02;3.45;;;6.70;99.90;;;;;;5130347;27;20055;-75
2022/04/08 09:04:45;;;;;;;5.57;3.63;;;7.00;99.90;;;;;;5139636;27;20062;-74
2022/04/08 09:07:28;;;;;;;4.95;2.50;;;6.90;99.90;;;;;;5137745;27;20061;-75
2022/04/08 09:09:56;;;;;;;6.28;2.70;;;7.00;99.90;;;;;;5142096;27;20104;-75
2022/04/08 09:12:27;;;;;;;13.73;2.65;;;7.20;99.90;;;;;;5131136;27;20115;-75
2022/04/08 09:14:58;;;;;;;8.25;2.50;;;7.10;99.90;;;;;;5136183;27;20550;-74
2022/04/08 09:17:25;;;;;;;8.05;2.70;;;7.40;99.90;;;;;;5131676;27;20073;-74
2022/04/08 09:19:56;;;;;;;9.65;3.55;;;7.40;99.90;;;;;;5140507;27;20038;-76
2022/04/08 09:22:29;;;;;;;7.00;2.40;;;7.50;99.90;;;;;;5123524;27;20141;-76
2022/04/08 09:25:05;;;;;;;6.75;2.97;;;7.60;99.90;;;;;;5139320;27;20043;-76
2022/04/08 09:27:34;;;;;;;6.45;2.60;;;7.80;99.90;;;;;;5111635;27;20530;-75
2022/04/08 09:30:00;;;;;;;6.28;2.72;;;7.80;99.90;;;;;;5123248;27;20039;-74
2022/04/08 09:32:27;;;;;;;7.35;2.60;;;7.80;99.90;;;;;;5117365;27;20050;-75
2022/04/08 09:34:53;;;;;;;8.82;2.80;;;8.00;99.90;;;;;;5121996;27;20043;-73
2022/04/08 09:37:19;;;;;;;6.85;2.78;;;7.90;99.90;;;;;;5129636;27;20062;-75
2022/04/08 09:40:08;;;;;;;9.60;3.80;;;7.90;99.90;;;;;;5120545;27;20054;-75
2022/04/08 09:42:45;;;;;;;9.82;2.95;;;7.80;99.90;;;;;;5108488;27;20050;-74
2022/04/08 09:45:12;;;;;;;10.60;3.72;;;7.70;99.90;;;;;;5115514;27;20049;-74
2022/04/08 09:47:38;;;;;;;9.50;3.25;;;7.80;99.90;;;;;;5159148;27;20114;-75
2022/04/08 09:50:05;;;;;;;12.45;3.47;;;7.60;99.90;;;;;;5122921;27;20076;-75
2022/04/08 09:52:31;;;;;;;9.88;2.90;;;7.70;99.90;;;;;;5112621;27;20588;-75
2022/04/08 09:55:00;;;;;;;11.18;3.50;;;7.80;99.90;;;;;;5141720;27;20042;-75
2022/04/08 09:57:28;;;;;;;8.60;2.95;;;7.90;99.90;;;;;;5128849;27;20053;-76
2022/04/08 09:59:58;;;;;;;13.70;2.90;;;8.10;99.90;;;;;;5139290;27;20043;-74
2022/04/08 10:02:28;;;;;;;7.07;2.80;;;8.20;99.90;;;;;;5129416;27;20110;-73
2022/04/08 10:04:55;;;;;;;9.75;3.30;;;8.00;99.90;;;;;;5136556;27;20122;-74
2022/04/08 10:07:22;;;;;;;9.35;2.63;;;7.80;99.90;;;;;;5123325;27;20046;-73
2022/04/08 10:10:00;;;;;;;11.18;3.60;;;7.70;99.90;;;;;;5139255;27;20043;-74
2022/04/08 10:12:43;;;;;;;12.77;2.97;;;7.80;99.90;;;;;;5129410;27;20051;-74
2022/04/08 10:15:16;;;;;;;9.23;2.85;;;8.10;99.90;;;;;;5138981;27;20061;-74
2022/04/08 10:17:42;;;;;;;9.63;3.20;;;8.40;99.90;;;;;;5122501;27;20054;-75
2022/04/08 10:20:21;;;;;;;12.13;4.72;;;8.50;99.90;;;;;;5137313;27;20074;-75
2022/04/08 10:22:48;;;;;;;10.27;3.90;;;8.60;99.90;;;;;;5129763;27;20066;-74
2022/04/08 10:25:16;;;;;;;9.93;3.20;;;8.70;99.90;;;;;;5157259;27;20042;-75
2022/04/08 10:27:43;;;;;;;11.02;3.40;;;8.60;99.90;;;;;;5129182;27;20059;-75
2022/04/08 10:30:14;;;;;;;9.90;3.75;;;8.70;99.90;;;;;;5139070;27;20047;-77
2022/04/08 10:32:41;;;;;;;10.07;3.85;;;8.60;99.90;;;;;;5118462;27;20518;-74
2022/04/08 10:35:20;;;;;;;13.13;3.70;;;8.60;99.90;;;;;;5139442;27;20088;-74
2022/04/08 10:38:00;;;;;;;11.95;3.65;;;8.50;99.90;;;;;;5124019;27;20054;-74
2022/04/08 10:40:36;;;;;;;11.13;3.40;;;8.50;99.90;;;;;;5145290;27;20047;-74
2022/04/08 10:43:09;;;;;;;9.63;3.30;;;8.40;99.90;;;;;;5123452;27;20049;-74
2022/04/08 10:45:36;;;;;;;13.60;4.07;;;8.40;99.90;;;;;;5129477;27;20035;-73
2022/04/08 10:48:11;;;;;;;13.05;3.88;;;8.60;99.90;;;;;;5159049;27;20139;-73
2022/04/08 10:50:38;;;;;;;10.88;3.10;;;8.60;99.90;;;;;;5131444;27;20058;-74
2022/04/08 10:53:12;;;;;;;11.10;3.20;;;8.50;99.90;;;;;;5143486;27;20110;-74
2022/04/08 10:56:07;;;;;;;10.35;3.22;;;8.60;99.90;;;;;;5115757;27;20451;-74
2022/04/08 10:58:44;;;;;;;7.15;2.60;;;8.60;99.90;;;;;;5141499;27;20042;-74
2022/04/08 11:01:27;;;;;;;10.02;3.15;;;8.30;99.90;;;;;;5131031;27;20141;-74
2022/04/08 11:04:02;;;;;;;9.15;3.13;;;8.20;99.90;;;;;;5136161;27;20050;-73
2022/04/08 11:06:29;;;;;;;6.57;2.92;;;8.50;99.90;;;;;;5115573;27;20058;-73
2022/04/08 11:08:55;;;;;;;6.40;3.05;;;8.20;99.90;;;;;;5110390;27;20360;-73
2022/04/08 11:11:31;;;;;;;4.93;2.00;;;8.00;99.90;;;;;;5123906;27;20066;-76
2022/04/08 11:13:58;;;;;;;5.65;2.55;;;8.20;99.90;;;;;;5134424;27;20073;-76
2022/04/08 11:16:27;;;;;;;10.85;3.42;;;8.30;99.90;;;;;;5111666;27;20047;-75
2022/04/08 11:18:54;;;;;;;10.57;2.30;;;8.30;99.90;;;;;;5138883;27;20715;-74
2022/04/08 11:21:21;;;;;;;9.38;3.05;;;8.40;99.90;;;;;;5112297;27;20043;-76
2022/04/08 11:24:04;;;;;;;4.90;2.28;;;8.10;99.90;;;;;;5122352;27;20077;-75
2022/04/08 11:26:31;;;;;;;6.30;2.20;;;7.90;99.90;;;;;;5129473;27;20060;-75
2022/04/08 11:29:18;;;;;;;7.20;2.00;;;7.90;99.90;;;;;;5136612;27;20043;-75
2022/04/08 11:31:46;;;;;;;8.43;2.30;;;8.00;99.90;;;;;;5140684;27;20120;-75
2022/04/08 11:34:13;;;;;;;4.82;2.25;;;8.00;99.90;;;;;;5123337;27;20051;-75
2022/04/08 11:36:39;;;;;;;9.38;2.38;;;8.00;99.90;;;;;;5121035;27;20074;-75
2022/04/08 11:39:06;;;;;;;8.23;2.20;;;8.10;99.90;;;;;;5133922;27;20431;-76
2022/04/08 11:41:33;;;;;;;8.32;3.03;;;8.10;99.90;;;;;;5120468;28;20119;-75
2022/04/08 11:44:01;;;;;;;6.03;2.20;;;8.40;99.90;;;;;;5111950;27;20037;-75
2022/04/08 11:46:26;;;;;;;6.40;2.13;;;8.50;99.90;;;;;;5130680;27;20088;-76
2022/04/08 11:48:52;;;;;;;5.20;2.25;;;8.70;99.90;;;;;;5143524;27;20039;-76
2022/04/08 11:51:21;;;;;;;5.45;2.35;;;8.90;99.90;;;;;;5111057;27;20556;-75
2022/04/08 11:53:52;;;;;;;5.50;2.83;;;9.00;99.90;;;;;;5121325;27;20102;-75
2022/04/08 11:56:26;;;;;;;6.18;2.33;;;9.00;99.90;;;;;;5128132;27;20629;-76
2022/04/08 11:59:08;;;;;;;7.22;2.22;;;9.20;99.90;;;;;;5138124;27;20568;-75
2022/04/08 12:01:43;;;;;;;5.65;2.20;;;9.20;99.90;;;;;;5128161;27;20209;-75
2022/04/08 12:04:11;;;;;;;6.65;2.20;;;9.40;99.90;;;;;;5137938;27;20058;-75
2022/04/08 12:06:43;;;;;;;4.82;2.30;;;9.40;99.90;;;;;;5128369;27;20051;-74
2022/04/08 12:09:10;;;;;;;9.57;2.55;;;9.40;99.90;;;;;;5134895;27;20058;-75
2022/04/08 12:11:42;;;;;;;6.05;1.92;;;9.20;99.90;;;;;;5143941;27;20133;-76
2022/04/08 12:14:09;;;;;;;6.22;2.05;;;8.50;99.90;;;;;;5142971;27;20039;-74
2022/04/08 12:16:39;;;;;;;5.07;2.70;;;8.20;99.90;;;;;;5125017;27;20135;-74
2022/04/08 12:19:06;;;;;;;5.20;2.50;;;8.10;99.90;;;;;;5141340;27;20095;-74
2022/04/08 12:21:33;;;;;;;7.50;2.22;;;7.90;99.90;;;;;;5130278;27;20051;-74
2022/04/08 12:24:03;;;;;;;6.03;2.17;;;7.70;99.90;;;;;;5142170;27;20046;-75
2022/04/08 12:26:33;;;;;;;3.58;1.92;;;7.80;99.90;;;;;;5128167;27;20051;-75
2022/04/08 12:29:07;;;;;;;;;;;7.90;99.90;;;;;;5139103;27;20379;-75
2022/04/08 12:31:34;;;;;;;6.60;2.00;;;8.00;99.90;;;;;;5131233;27;19919;-76
2022/04/08 12:34:02;;;;;;;6.25;2.08;;;8.50;99.90;;;;;;5125710;27;20030;-76
2022/04/08 12:36:28;;;;;;;6.63;2.30;;;8.70;99.90;;;;;;5133868;27;20059;-75
2022/04/08 12:38:53;;;;;;;4.88;1.70;;;8.70;99.90;;;;;;5144168;27;20127;-75
2022/04/08 12:41:19;;;;;;;6.40;2.75;;;8.80;99.90;;;;;;5144091;27;20074;-75
2022/04/08 12:43:45;;;;;;;5.80;1.92;;;8.80;99.90;;;;;;5127862;27;20107;-74
2022/04/08 12:46:11;;;;;;;4.85;2.03;;;8.80;99.90;;;;;;5127657;27;21910;-76
2022/04/08 12:48:36;;;;;;;5.22;1.90;;;8.60;99.90;;;;;;5141444;27;20134;-74
2022/04/08 12:51:06;;;;;;;5.47;1.95;;;8.70;99.90;;;;;;5111956;27;20542;-76
2022/04/08 12:53:33;;;;;;;7.60;2.08;;;8.90;99.90;;;;;;5133755;27;20098;-76
2022/04/08 12:55:58;;;;;;;7.30;2.17;;;9.00;99.90;;;;;;5105155;27;20042;-75